EZY1512 EGKK-EDDF
Flight info
| Callsign | EZY1512 |
|---|---|
| Flight time | 1h 3m |
| Altitude | 35000 |
| Route | DVR UL9 KONAN UL607 KOK DCT REMBA UL607 SPI T180 NIVNU/N0395F230 T847 IMCOM IMCOM1B |
| Aircraft | A20N/M-SDE2E3FGHIRWXY/LB1 |
Departure
| Time | 2026-05-07 14:31 |
|---|---|
| Airport | London Gatwick Airport (EGKK) |
Arrival
| Time | 2026-05-07 15:35 |
|---|---|
| Airport | Frankfurt Main Airport (EDDF) |
| Time | Latitude | Longitude | Altitude | Speed | Heading |
|---|---|---|---|---|---|
| 2026-05-07 13:43 | 51.15650 | -0.17787 | 203 ft | 0 kts | 167° |
| 2026-05-07 14:13 | 51.15661 | -0.17791 | 203 ft | 3 kts | 167° |
| 2026-05-07 14:13 | 51.15682 | -0.17798 | 214 ft | 3 kts | 167° |
| 2026-05-07 14:13 | 51.15701 | -0.17803 | 206 ft | 3 kts | 186° |
| 2026-05-07 14:13 | 51.15717 | -0.17794 | 216 ft | 3 kts | 233° |
| 2026-05-07 14:14 | 51.15725 | -0.17772 | 212 ft | 1 kts | 257° |
| 2026-05-07 14:14 | 51.15728 | -0.17750 | 205 ft | 3 kts | 257° |
| 2026-05-07 14:14 | 51.15731 | -0.17724 | 203 ft | 1 kts | 257° |
| 2026-05-07 14:14 | 51.15732 | -0.17722 | 203 ft | 0 kts | 257° |
| 2026-05-07 14:17 | 51.15731 | -0.17726 | 203 ft | 2 kts | 257° |
| 2026-05-07 14:17 | 51.15725 | -0.17765 | 207 ft | 6 kts | 257° |
| 2026-05-07 14:18 | 51.15715 | -0.17844 | 203 ft | 9 kts | 258° |
| 2026-05-07 14:18 | 51.15699 | -0.17963 | 207 ft | 13 kts | 258° |
| 2026-05-07 14:18 | 51.15678 | -0.18116 | 206 ft | 16 kts | 258° |
| 2026-05-07 14:18 | 51.15652 | -0.18300 | 205 ft | 11 kts | 257° |
| 2026-05-07 14:19 | 51.15624 | -0.18351 | 209 ft | 5 kts | 185° |
| 2026-05-07 14:19 | 51.15579 | -0.18344 | 213 ft | 8 kts | 167° |
| 2026-05-07 14:19 | 51.15515 | -0.18320 | 215 ft | 11 kts | 167° |
| 2026-05-07 14:19 | 51.15433 | -0.18293 | 207 ft | 13 kts | 168° |
| 2026-05-07 14:20 | 51.15336 | -0.18259 | 211 ft | 15 kts | 168° |
| 2026-05-07 14:20 | 51.15231 | -0.18224 | 206 ft | 8 kts | 176° |
| 2026-05-07 14:20 | 51.15192 | -0.18277 | 214 ft | 8 kts | 266° |
| 2026-05-07 14:20 | 51.15184 | -0.18342 | 207 ft | 10 kts | 257° |
| 2026-05-07 14:21 | 51.15166 | -0.18476 | 209 ft | 14 kts | 258° |
| 2026-05-07 14:21 | 51.15135 | -0.18698 | 203 ft | 18 kts | 258° |
| 2026-05-07 14:21 | 51.15117 | -0.18831 | 207 ft | 19 kts | 257° |
| 2026-05-07 14:21 | 51.15086 | -0.19053 | 214 ft | 17 kts | 257° |
| 2026-05-07 14:22 | 51.15054 | -0.19289 | 214 ft | 16 kts | 258° |
| 2026-05-07 14:22 | 51.15038 | -0.19405 | 208 ft | 16 kts | 258° |
| 2026-05-07 14:22 | 51.15012 | -0.19585 | 212 ft | 18 kts | 257° |
| 2026-05-07 14:22 | 51.15006 | -0.19627 | 204 ft | 2 kts | 257° |
| 2026-05-07 14:23 | 51.15001 | -0.19669 | 210 ft | 6 kts | 258° |
| 2026-05-07 14:23 | 51.14990 | -0.19750 | 204 ft | 9 kts | 258° |
| 2026-05-07 14:23 | 51.14973 | -0.19870 | 204 ft | 13 kts | 258° |
| 2026-05-07 14:23 | 51.14952 | -0.20029 | 206 ft | 16 kts | 257° |
| 2026-05-07 14:24 | 51.14925 | -0.20220 | 205 ft | 19 kts | 257° |
| 2026-05-07 14:24 | 51.14893 | -0.20440 | 206 ft | 22 kts | 256° |
| 2026-05-07 14:24 | 51.14861 | -0.20682 | 203 ft | 21 kts | 257° |
| 2026-05-07 14:24 | 51.14832 | -0.20892 | 206 ft | 20 kts | 258° |
| 2026-05-07 14:25 | 51.14802 | -0.21119 | 207 ft | 22 kts | 256° |
| 2026-05-07 14:25 | 51.14775 | -0.21245 | 203 ft | 9 kts | 260° |
| 2026-05-07 14:25 | 51.14760 | -0.21353 | 204 ft | 11 kts | 256° |
| 2026-05-07 14:25 | 51.14709 | -0.21402 | 208 ft | 9 kts | 162° |
| 2026-05-07 14:26 | 51.14658 | -0.21358 | 216 ft | 8 kts | 142° |
| 2026-05-07 14:26 | 51.14617 | -0.21329 | 206 ft | 0 kts | 165° |
| 2026-05-07 14:28 | 51.14604 | -0.21323 | 207 ft | 4 kts | 165° |
| 2026-05-07 14:28 | 51.14565 | -0.21301 | 206 ft | 8 kts | 155° |
| 2026-05-07 14:29 | 51.14524 | -0.21219 | 203 ft | 8 kts | 107° |
| 2026-05-07 14:29 | 51.14525 | -0.21127 | 214 ft | 7 kts | 77° |
| 2026-05-07 14:29 | 51.14526 | -0.21124 | 214 ft | 0 kts | 77° |
| 2026-05-07 14:30 | 51.14546 | -0.20987 | 207 ft | 43 kts | 76° |
| 2026-05-07 14:30 | 51.14609 | -0.20508 | 208 ft | 88 kts | 77° |
| 2026-05-07 14:31 | 51.14794 | -0.19176 | 208 ft | 144 kts | 77° |
| 2026-05-07 14:31 | 51.15049 | -0.17494 | 599 ft | 154 kts | 78° |
| 2026-05-07 14:31 | 51.15292 | -0.15820 | 1147 ft | 162 kts | 79° |
| 2026-05-07 14:31 | 51.15535 | -0.14006 | 1753 ft | 167 kts | 79° |
| 2026-05-07 14:32 | 51.15785 | -0.12163 | 2278 ft | 178 kts | 79° |
| 2026-05-07 14:32 | 51.15972 | -0.10093 | 2671 ft | 197 kts | 90° |
| 2026-05-07 14:32 | 51.15994 | -0.07772 | 3152 ft | 216 kts | 89° |
| 2026-05-07 14:32 | 51.16025 | -0.05252 | 3677 ft | 237 kts | 89° |
| 2026-05-07 14:33 | 51.16061 | -0.02586 | 4534 ft | 242 kts | 89° |
| 2026-05-07 14:33 | 51.16095 | 0.00074 | 5350 ft | 245 kts | 88° |
| 2026-05-07 14:33 | 51.16137 | 0.02885 | 5806 ft | 265 kts | 88° |
| 2026-05-07 14:33 | 51.16184 | 0.05871 | 5879 ft | 271 kts | 88° |
| 2026-05-07 14:34 | 51.16225 | 0.08864 | 5884 ft | 272 kts | 88° |
| 2026-05-07 14:34 | 51.16262 | 0.11927 | 6234 ft | 274 kts | 88° |
| 2026-05-07 14:34 | 51.16305 | 0.14963 | 7144 ft | 274 kts | 88° |
| 2026-05-07 14:34 | 51.16347 | 0.18032 | 8110 ft | 279 kts | 89° |
| 2026-05-07 14:35 | 51.16384 | 0.21152 | 9039 ft | 284 kts | 90° |
| 2026-05-07 14:35 | 51.16415 | 0.24347 | 9961 ft | 289 kts | 90° |
| 2026-05-07 14:35 | 51.16445 | 0.27613 | 10481 ft | 308 kts | 90° |
| 2026-05-07 14:35 | 51.16475 | 0.31154 | 10818 ft | 331 kts | 90° |
| 2026-05-07 14:36 | 51.16402 | 0.34887 | 11408 ft | 341 kts | 98° |
| 2026-05-07 14:36 | 51.16088 | 0.38665 | 12287 ft | 344 kts | 98° |
| 2026-05-07 14:36 | 51.15762 | 0.42439 | 13122 ft | 349 kts | 99° |
| 2026-05-07 14:36 | 51.15421 | 0.46272 | 13923 ft | 353 kts | 99° |
| 2026-05-07 14:37 | 51.15068 | 0.50175 | 14628 ft | 358 kts | 99° |
| 2026-05-07 14:37 | 51.14329 | 0.58275 | 16041 ft | 369 kts | 99° |
| 2026-05-07 14:37 | 51.13955 | 0.62336 | 16752 ft | 374 kts | 99° |
| 2026-05-07 14:38 | 51.13575 | 0.66458 | 17464 ft | 379 kts | 99° |
| 2026-05-07 14:38 | 51.13188 | 0.70630 | 18157 ft | 384 kts | 99° |
| 2026-05-07 14:38 | 51.12793 | 0.74863 | 18780 ft | 388 kts | 99° |
| 2026-05-07 14:38 | 51.12402 | 0.79044 | 19409 ft | 392 kts | 99° |
| 2026-05-07 14:39 | 51.11996 | 0.83369 | 20032 ft | 396 kts | 99° |
| 2026-05-07 14:39 | 51.11582 | 0.87769 | 20661 ft | 399 kts | 99° |
| 2026-05-07 14:39 | 51.11166 | 0.92170 | 21275 ft | 403 kts | 99° |
| 2026-05-07 14:39 | 51.10748 | 0.96580 | 21901 ft | 407 kts | 99° |
| 2026-05-07 14:40 | 51.10322 | 1.01046 | 22530 ft | 410 kts | 99° |
| 2026-05-07 14:40 | 51.09890 | 1.05561 | 23083 ft | 414 kts | 99° |
| 2026-05-07 14:40 | 51.09447 | 1.10163 | 23657 ft | 418 kts | 99° |
| 2026-05-07 14:40 | 51.08995 | 1.14830 | 24147 ft | 422 kts | 100° |
| 2026-05-07 14:41 | 51.08694 | 1.17931 | 24484 ft | 423 kts | 99° |
| 2026-05-07 14:41 | 51.08249 | 1.22604 | 24966 ft | 427 kts | 99° |
| 2026-05-07 14:41 | 51.07803 | 1.27315 | 25432 ft | 430 kts | 99° |
| 2026-05-07 14:41 | 51.07351 | 1.32025 | 25890 ft | 433 kts | 99° |
| 2026-05-07 14:42 | 51.06886 | 1.36787 | 26343 ft | 436 kts | 99° |
| 2026-05-07 14:42 | 51.06413 | 1.41563 | 26784 ft | 439 kts | 99° |
| 2026-05-07 14:42 | 51.05934 | 1.46373 | 27220 ft | 441 kts | 99° |
| 2026-05-07 14:42 | 51.05450 | 1.51211 | 27640 ft | 444 kts | 100° |
| 2026-05-07 14:43 | 51.04961 | 1.56068 | 28033 ft | 447 kts | 100° |
| 2026-05-07 14:43 | 51.04467 | 1.60961 | 28435 ft | 449 kts | 100° |
| 2026-05-07 14:43 | 51.03970 | 1.65876 | 28823 ft | 452 kts | 100° |
| 2026-05-07 14:43 | 51.03459 | 1.70900 | 29197 ft | 455 kts | 100° |
| 2026-05-07 14:44 | 51.02954 | 1.75840 | 29553 ft | 457 kts | 100° |
| 2026-05-07 14:44 | 51.02441 | 1.80846 | 29902 ft | 460 kts | 100° |
| 2026-05-07 14:44 | 51.01923 | 1.85876 | 30245 ft | 463 kts | 100° |
| 2026-05-07 14:44 | 51.01403 | 1.90904 | 30550 ft | 465 kts | 100° |
| 2026-05-07 14:45 | 51.00877 | 1.95976 | 30887 ft | 466 kts | 100° |
| 2026-05-07 14:45 | 51.00349 | 2.01044 | 31208 ft | 468 kts | 100° |
| 2026-05-07 14:45 | 50.99814 | 2.06151 | 31595 ft | 468 kts | 100° |
| 2026-05-07 14:45 | 50.99279 | 2.11239 | 32013 ft | 467 kts | 100° |
| 2026-05-07 14:46 | 50.98745 | 2.16294 | 32422 ft | 466 kts | 100° |
| 2026-05-07 14:46 | 50.98200 | 2.21429 | 32830 ft | 466 kts | 101° |
| 2026-05-07 14:46 | 50.97661 | 2.26492 | 33224 ft | 465 kts | 101° |
| 2026-05-07 14:46 | 50.97122 | 2.31529 | 33612 ft | 464 kts | 101° |
| 2026-05-07 14:47 | 50.96580 | 2.36579 | 33994 ft | 463 kts | 101° |
| 2026-05-07 14:47 | 50.96028 | 2.41695 | 34324 ft | 462 kts | 101° |
| 2026-05-07 14:47 | 50.95484 | 2.46717 | 34610 ft | 462 kts | 101° |
| 2026-05-07 14:47 | 50.94937 | 2.51743 | 34887 ft | 462 kts | 101° |
| 2026-05-07 14:48 | 50.94388 | 2.56772 | 34996 ft | 462 kts | 101° |
| 2026-05-07 14:48 | 50.93838 | 2.61792 | 35059 ft | 461 kts | 101° |
| 2026-05-07 14:48 | 50.92727 | 2.71870 | 35074 ft | 461 kts | 101° |
| 2026-05-07 14:49 | 50.91633 | 2.81866 | 35073 ft | 461 kts | 101° |
| 2026-05-07 14:49 | 50.90531 | 2.91925 | 35070 ft | 461 kts | 100° |
| 2026-05-07 14:50 | 50.89411 | 3.01935 | 35068 ft | 461 kts | 101° |
| 2026-05-07 14:50 | 50.88265 | 3.11958 | 35059 ft | 460 kts | 101° |
| 2026-05-07 14:51 | 50.87107 | 3.21992 | 35065 ft | 460 kts | 101° |
| 2026-05-07 14:51 | 50.85952 | 3.31924 | 35054 ft | 459 kts | 101° |
| 2026-05-07 14:52 | 50.84966 | 3.40351 | 35063 ft | 459 kts | 101° |
| 2026-05-07 14:52 | 50.83615 | 3.51810 | 35064 ft | 460 kts | 101° |
| 2026-05-07 14:53 | 50.82624 | 3.60163 | 35057 ft | 460 kts | 101° |
| 2026-05-07 14:53 | 50.81431 | 3.70144 | 35056 ft | 461 kts | 102° |
| 2026-05-07 14:54 | 50.80228 | 3.80142 | 35062 ft | 461 kts | 102° |
| 2026-05-07 14:54 | 50.79014 | 3.90150 | 35063 ft | 462 kts | 102° |
| 2026-05-07 14:55 | 50.77777 | 4.00271 | 35073 ft | 463 kts | 102° |
| 2026-05-07 14:55 | 50.76550 | 4.10246 | 35078 ft | 463 kts | 102° |
| 2026-05-07 14:56 | 50.75303 | 4.20310 | 35081 ft | 464 kts | 102° |
| 2026-05-07 14:56 | 50.74056 | 4.30300 | 35087 ft | 465 kts | 102° |
| 2026-05-07 14:57 | 50.72806 | 4.40234 | 35089 ft | 465 kts | 102° |
| 2026-05-07 14:57 | 50.71500 | 4.50547 | 35089 ft | 465 kts | 102° |
| 2026-05-07 14:58 | 50.70282 | 4.60091 | 35089 ft | 465 kts | 102° |
| 2026-05-07 14:58 | 50.69013 | 4.69972 | 35083 ft | 464 kts | 102° |
| 2026-05-07 14:59 | 50.67723 | 4.79963 | 35080 ft | 464 kts | 103° |
| 2026-05-07 14:59 | 50.66410 | 4.89903 | 35080 ft | 463 kts | 105° |
| 2026-05-07 15:00 | 50.64540 | 4.99576 | 35077 ft | 462 kts | 109° |
| 2026-05-07 15:00 | 50.62559 | 5.09221 | 35075 ft | 462 kts | 109° |
| 2026-05-07 15:01 | 50.60603 | 5.18735 | 35067 ft | 461 kts | 109° |
| 2026-05-07 15:01 | 50.58642 | 5.28197 | 35068 ft | 461 kts | 109° |
| 2026-05-07 15:02 | 50.56945 | 5.36335 | 35065 ft | 461 kts | 109° |
| 2026-05-07 15:02 | 50.54941 | 5.45909 | 35061 ft | 461 kts | 109° |
| 2026-05-07 15:03 | 50.52929 | 5.55470 | 35060 ft | 461 kts | 109° |
| 2026-05-07 15:03 | 50.50922 | 5.65021 | 35047 ft | 461 kts | 108° |
| 2026-05-07 15:04 | 50.49118 | 5.74726 | 35050 ft | 462 kts | 107° |
| 2026-05-07 15:04 | 50.47349 | 5.84383 | 35042 ft | 462 kts | 107° |
| 2026-05-07 15:05 | 50.45534 | 5.94068 | 35041 ft | 463 kts | 107° |
| 2026-05-07 15:05 | 50.43714 | 6.03680 | 35024 ft | 462 kts | 107° |
| 2026-05-07 15:06 | 50.42799 | 6.08495 | 34734 ft | 459 kts | 107° |
| 2026-05-07 15:06 | 50.42082 | 6.13436 | 34205 ft | 459 kts | 101° |
| 2026-05-07 15:06 | 50.41540 | 6.18336 | 33477 ft | 459 kts | 99° |
| 2026-05-07 15:06 | 50.41029 | 6.23289 | 32703 ft | 459 kts | 99° |
| 2026-05-07 15:07 | 50.40506 | 6.28300 | 31934 ft | 459 kts | 99° |
| 2026-05-07 15:07 | 50.39980 | 6.33166 | 31159 ft | 459 kts | 99° |
| 2026-05-07 15:07 | 50.39392 | 6.38368 | 30364 ft | 459 kts | 99° |
| 2026-05-07 15:07 | 50.38844 | 6.43080 | 29738 ft | 455 kts | 100° |
| 2026-05-07 15:08 | 50.38268 | 6.48005 | 29062 ft | 450 kts | 99° |
| 2026-05-07 15:08 | 50.37714 | 6.52821 | 28362 ft | 447 kts | 98° |
| 2026-05-07 15:08 | 50.37169 | 6.57664 | 27697 ft | 443 kts | 99° |
| 2026-05-07 15:08 | 50.36627 | 6.62380 | 27065 ft | 438 kts | 99° |
| 2026-05-07 15:09 | 50.36076 | 6.67045 | 26435 ft | 435 kts | 100° |
| 2026-05-07 15:09 | 50.35517 | 6.71673 | 25825 ft | 431 kts | 100° |
| 2026-05-07 15:09 | 50.34949 | 6.76318 | 25220 ft | 427 kts | 100° |
| 2026-05-07 15:09 | 50.34393 | 6.80826 | 24643 ft | 424 kts | 101° |
| 2026-05-07 15:10 | 50.33727 | 6.85327 | 24057 ft | 420 kts | 107° |
| 2026-05-07 15:10 | 50.32712 | 6.89655 | 23483 ft | 415 kts | 115° |
| 2026-05-07 15:10 | 50.31482 | 6.93720 | 22880 ft | 411 kts | 116° |
| 2026-05-07 15:10 | 50.30276 | 6.97713 | 22266 ft | 407 kts | 115° |
| 2026-05-07 15:11 | 50.29074 | 7.01713 | 21665 ft | 403 kts | 115° |
| 2026-05-07 15:11 | 50.27894 | 7.05653 | 21110 ft | 399 kts | 115° |
| 2026-05-07 15:11 | 50.26729 | 7.09537 | 20528 ft | 396 kts | 115° |
| 2026-05-07 15:11 | 50.25566 | 7.13422 | 19923 ft | 394 kts | 114° |
| 2026-05-07 15:12 | 50.24423 | 7.17308 | 19402 ft | 389 kts | 114° |
| 2026-05-07 15:12 | 50.23293 | 7.21139 | 18881 ft | 386 kts | 114° |
| 2026-05-07 15:12 | 50.22167 | 7.24918 | 18295 ft | 384 kts | 114° |
| 2026-05-07 15:12 | 50.21049 | 7.28690 | 17699 ft | 381 kts | 114° |
| 2026-05-07 15:13 | 50.19951 | 7.32409 | 17111 ft | 379 kts | 113° |
| 2026-05-07 15:13 | 50.18995 | 7.36226 | 16554 ft | 375 kts | 109° |
| 2026-05-07 15:13 | 50.18094 | 7.40021 | 15976 ft | 373 kts | 109° |
| 2026-05-07 15:13 | 50.17184 | 7.43826 | 15382 ft | 371 kts | 110° |
| 2026-05-07 15:14 | 50.16279 | 7.47587 | 14861 ft | 368 kts | 110° |
| 2026-05-07 15:14 | 50.15377 | 7.51314 | 14353 ft | 365 kts | 110° |
| 2026-05-07 15:14 | 50.14762 | 7.53845 | 14026 ft | 362 kts | 110° |
| 2026-05-07 15:14 | 50.13867 | 7.57531 | 13451 ft | 361 kts | 110° |
| 2026-05-07 15:15 | 50.12976 | 7.61190 | 13271 ft | 354 kts | 110° |
| 2026-05-07 15:15 | 50.12088 | 7.64839 | 13170 ft | 361 kts | 110° |
| 2026-05-07 15:15 | 50.11099 | 7.68385 | 13058 ft | 358 kts | 118° |
| 2026-05-07 15:15 | 50.09798 | 7.71671 | 12796 ft | 355 kts | 125° |
| 2026-05-07 15:16 | 50.08361 | 7.74856 | 12349 ft | 353 kts | 125° |
| 2026-05-07 15:16 | 50.06937 | 7.78027 | 11782 ft | 352 kts | 125° |
| 2026-05-07 15:16 | 50.05542 | 7.81139 | 11352 ft | 348 kts | 125° |
| 2026-05-07 15:16 | 50.04165 | 7.84216 | 10821 ft | 346 kts | 124° |
| 2026-05-07 15:17 | 50.02823 | 7.87280 | 10405 ft | 341 kts | 123° |
| 2026-05-07 15:17 | 50.01482 | 7.90372 | 10257 ft | 326 kts | 123° |
| 2026-05-07 15:17 | 50.00211 | 7.93260 | 10115 ft | 312 kts | 124° |
| 2026-05-07 15:17 | 49.99054 | 7.96004 | 10001 ft | 300 kts | 118° |
| 2026-05-07 15:18 | 49.98024 | 7.98861 | 9632 ft | 296 kts | 118° |
| 2026-05-07 15:18 | 49.97030 | 8.01611 | 9210 ft | 294 kts | 118° |
| 2026-05-07 15:18 | 49.96040 | 8.04382 | 8636 ft | 297 kts | 117° |
| 2026-05-07 15:18 | 49.95053 | 8.07255 | 7982 ft | 303 kts | 116° |
| 2026-05-07 15:19 | 49.94072 | 8.10196 | 7325 ft | 309 kts | 116° |
| 2026-05-07 15:19 | 49.93081 | 8.13260 | 6670 ft | 315 kts | 115° |
| 2026-05-07 15:19 | 49.92133 | 8.16302 | 6119 ft | 315 kts | 114° |
| 2026-05-07 15:19 | 49.91201 | 8.19398 | 5857 ft | 304 kts | 113° |
| 2026-05-07 15:20 | 49.90285 | 8.22191 | 5978 ft | 278 kts | 132° |
| 2026-05-07 15:20 | 49.89048 | 8.24466 | 5456 ft | 279 kts | 139° |
| 2026-05-07 15:20 | 49.87896 | 8.26816 | 5307 ft | 275 kts | 123° |
| 2026-05-07 15:20 | 49.87231 | 8.29602 | 5223 ft | 278 kts | 104° |
| 2026-05-07 15:21 | 49.87158 | 8.32597 | 5130 ft | 274 kts | 84° |
| 2026-05-07 15:21 | 49.87721 | 8.35391 | 5042 ft | 271 kts | 64° |
| 2026-05-07 15:21 | 49.88756 | 8.37799 | 5010 ft | 270 kts | 55° |
| 2026-05-07 15:21 | 49.89825 | 8.40169 | 5002 ft | 271 kts | 59° |
| 2026-05-07 15:22 | 49.90780 | 8.42725 | 4996 ft | 272 kts | 64° |
| 2026-05-07 15:22 | 49.91599 | 8.45392 | 4998 ft | 272 kts | 67° |
| 2026-05-07 15:22 | 49.92317 | 8.48054 | 4998 ft | 272 kts | 69° |
| 2026-05-07 15:22 | 49.93009 | 8.50788 | 4999 ft | 272 kts | 69° |
| 2026-05-07 15:23 | 49.93697 | 8.53558 | 5000 ft | 272 kts | 69° |
| 2026-05-07 15:23 | 49.94378 | 8.56294 | 5000 ft | 272 kts | 69° |
| 2026-05-07 15:23 | 49.95051 | 8.59020 | 4998 ft | 272 kts | 69° |
| 2026-05-07 15:23 | 49.95727 | 8.61744 | 5000 ft | 272 kts | 68° |
| 2026-05-07 15:24 | 49.96423 | 8.64503 | 4997 ft | 272 kts | 67° |
| 2026-05-07 15:24 | 49.97125 | 8.67252 | 5000 ft | 272 kts | 66° |
| 2026-05-07 15:24 | 49.97815 | 8.69989 | 4999 ft | 272 kts | 67° |
| 2026-05-07 15:24 | 49.98488 | 8.72737 | 5002 ft | 272 kts | 68° |
| 2026-05-07 15:25 | 49.98938 | 8.74605 | 4998 ft | 273 kts | 68° |
| 2026-05-07 15:25 | 49.99594 | 8.77367 | 4997 ft | 273 kts | 68° |
| 2026-05-07 15:25 | 50.00249 | 8.80140 | 5000 ft | 272 kts | 68° |
| 2026-05-07 15:25 | 50.00907 | 8.82936 | 4998 ft | 271 kts | 68° |
| 2026-05-07 15:26 | 50.01558 | 8.85703 | 4999 ft | 272 kts | 68° |
| 2026-05-07 15:26 | 50.02202 | 8.88438 | 4996 ft | 272 kts | 68° |
| 2026-05-07 15:26 | 50.02844 | 8.91173 | 4996 ft | 265 kts | 68° |
| 2026-05-07 15:26 | 50.03458 | 8.93793 | 4997 ft | 249 kts | 68° |
| 2026-05-07 15:27 | 50.04033 | 8.96235 | 4999 ft | 239 kts | 68° |
| 2026-05-07 15:27 | 50.04616 | 8.98705 | 4998 ft | 242 kts | 68° |
| 2026-05-07 15:27 | 50.05192 | 9.01130 | 4995 ft | 240 kts | 65° |
| 2026-05-07 15:27 | 50.06177 | 9.03135 | 5000 ft | 233 kts | 33° |
| 2026-05-07 15:28 | 50.07681 | 9.04022 | 5003 ft | 231 kts | 1° |
| 2026-05-07 15:28 | 50.09220 | 9.03542 | 4997 ft | 227 kts | 330° |
| 2026-05-07 15:28 | 50.10450 | 9.02020 | 4999 ft | 227 kts | 316° |
| 2026-05-07 15:28 | 50.11615 | 9.00368 | 4999 ft | 226 kts | 317° |
| 2026-05-07 15:29 | 50.12805 | 8.98747 | 4998 ft | 226 kts | 318° |
| 2026-05-07 15:29 | 50.13838 | 8.96895 | 4996 ft | 226 kts | 294° |
| 2026-05-07 15:29 | 50.14105 | 8.94485 | 5003 ft | 228 kts | 266° |
| 2026-05-07 15:29 | 50.13792 | 8.92058 | 4997 ft | 229 kts | 254° |
| 2026-05-07 15:30 | 50.13264 | 8.89717 | 4997 ft | 230 kts | 250° |
| 2026-05-07 15:30 | 50.12691 | 8.87349 | 5001 ft | 230 kts | 251° |
| 2026-05-07 15:30 | 50.12130 | 8.84988 | 4934 ft | 231 kts | 251° |
| 2026-05-07 15:30 | 50.11572 | 8.82656 | 4623 ft | 229 kts | 250° |
| 2026-05-07 15:31 | 50.10999 | 8.80288 | 4271 ft | 229 kts | 250° |
| 2026-05-07 15:31 | 50.10448 | 8.77971 | 3934 ft | 229 kts | 250° |
| 2026-05-07 15:31 | 50.09885 | 8.75604 | 3601 ft | 229 kts | 250° |
| 2026-05-07 15:31 | 50.09340 | 8.73316 | 3273 ft | 228 kts | 250° |
| 2026-05-07 15:32 | 50.08786 | 8.70987 | 2940 ft | 222 kts | 250° |
| 2026-05-07 15:32 | 50.08266 | 8.68811 | 2627 ft | 211 kts | 250° |
| 2026-05-07 15:32 | 50.07758 | 8.66679 | 2318 ft | 204 kts | 250° |
| 2026-05-07 15:32 | 50.07284 | 8.64689 | 2045 ft | 189 kts | 251° |
| 2026-05-07 15:33 | 50.06859 | 8.62904 | 1782 ft | 167 kts | 251° |
| 2026-05-07 15:33 | 50.06479 | 8.61315 | 1606 ft | 148 kts | 251° |
| 2026-05-07 15:33 | 50.06092 | 8.59711 | 1483 ft | 182 kts | 252° |
| 2026-05-07 15:33 | 50.05609 | 8.57780 | 1144 ft | 181 kts | 254° |
| 2026-05-07 15:34 | 50.05187 | 8.56072 | 752 ft | 158 kts | 255° |
| 2026-05-07 15:34 | 50.04853 | 8.54555 | 548 ft | 136 kts | 254° |
| 2026-05-07 15:34 | 50.04547 | 8.53231 | 393 ft | 129 kts | 251° |
| 2026-05-07 15:34 | 50.04256 | 8.51984 | 362 ft | 99 kts | 249° |
| 2026-05-07 15:35 | 50.04056 | 8.51470 | 360 ft | 39 kts | 217° |
| 2026-05-07 15:35 | 50.03925 | 8.51306 | 350 ft | 18 kts | 217° |
| 2026-05-07 15:35 | 50.03881 | 8.51277 | 350 ft | 2 kts | 135° |
| 2026-05-07 15:35 | 50.03875 | 8.51322 | 348 ft | 6 kts | 87° |
| 2026-05-07 15:36 | 50.03893 | 8.51402 | 348 ft | 9 kts | 70° |
| 2026-05-07 15:36 | 50.03918 | 8.51505 | 351 ft | 11 kts | 70° |
| 2026-05-07 15:36 | 50.03949 | 8.51637 | 350 ft | 15 kts | 70° |
| 2026-05-07 15:36 | 50.03992 | 8.51814 | 354 ft | 19 kts | 69° |
| 2026-05-07 15:37 | 50.04047 | 8.52040 | 356 ft | 25 kts | 68° |
| 2026-05-07 15:37 | 50.04112 | 8.52312 | 362 ft | 29 kts | 69° |
| 2026-05-07 15:37 | 50.04188 | 8.52631 | 363 ft | 32 kts | 70° |
| 2026-05-07 15:37 | 50.04270 | 8.52964 | 369 ft | 33 kts | 69° |
| 2026-05-07 15:38 | 50.04353 | 8.53316 | 373 ft | 34 kts | 70° |
| 2026-05-07 15:38 | 50.04403 | 8.53592 | 376 ft | 28 kts | 84° |
| 2026-05-07 15:38 | 50.04416 | 8.53808 | 374 ft | 32 kts | 85° |
| 2026-05-07 15:38 | 50.04434 | 8.54103 | 377 ft | 26 kts | 85° |
| 2026-05-07 15:39 | 50.04452 | 8.54440 | 348 ft | 25 kts | 99° |
| 2026-05-07 15:39 | 50.04392 | 8.54666 | 350 ft | 23 kts | 137° |
| 2026-05-07 15:39 | 50.04263 | 8.54797 | 359 ft | 17 kts | 158° |
| 2026-05-07 15:39 | 50.04162 | 8.54857 | 362 ft | 8 kts | 159° |
| 2026-05-07 15:40 | 50.04104 | 8.54891 | 355 ft | 9 kts | 159° |
| 2026-05-07 15:40 | 50.04077 | 8.54907 | 359 ft | 0 kts | 159° |
| 2026-05-07 15:41 | 50.04076 | 8.54907 | 361 ft | 1 kts | 159° |
| 2026-05-07 15:41 | 50.04055 | 8.54920 | 360 ft | 5 kts | 159° |
| 2026-05-07 15:42 | 50.04008 | 8.54947 | 366 ft | 9 kts | 160° |
| 2026-05-07 15:42 | 50.03931 | 8.54993 | 361 ft | 14 kts | 159° |
| 2026-05-07 15:42 | 50.03851 | 8.55087 | 359 ft | 17 kts | 102° |
| 2026-05-07 15:42 | 50.03889 | 8.55286 | 362 ft | 22 kts | 68° |
| 2026-05-07 15:43 | 50.03950 | 8.55537 | 357 ft | 28 kts | 70° |
| 2026-05-07 15:43 | 50.04030 | 8.55872 | 358 ft | 34 kts | 67° |
| 2026-05-07 15:43 | 50.04117 | 8.56243 | 353 ft | 39 kts | 71° |
| 2026-05-07 15:43 | 50.04217 | 8.56657 | 356 ft | 41 kts | 70° |
| 2026-05-07 15:44 | 50.04322 | 8.57090 | 354 ft | 43 kts | 70° |
| 2026-05-07 15:44 | 50.04428 | 8.57539 | 336 ft | 44 kts | 70° |
| 2026-05-07 15:44 | 50.04498 | 8.57842 | 336 ft | 44 kts | 70° |
| 2026-05-07 15:44 | 50.04553 | 8.58062 | 336 ft | 17 kts | 68° |
| 2026-05-07 15:45 | 50.04600 | 8.58262 | 331 ft | 21 kts | 68° |
| 2026-05-07 15:45 | 50.04656 | 8.58494 | 329 ft | 26 kts | 69° |
| 2026-05-07 15:45 | 50.04721 | 8.58749 | 326 ft | 23 kts | 67° |
| 2026-05-07 15:45 | 50.04774 | 8.58959 | 330 ft | 17 kts | 68° |
| 2026-05-07 15:46 | 50.04814 | 8.59074 | 340 ft | 0 kts | 24° |
| 2026-05-07 15:46 | 50.04828 | 8.59076 | 345 ft | 5 kts | 0° |
| 2026-05-07 15:46 | 50.04874 | 8.59051 | 351 ft | 8 kts | 341° |
| 2026-05-07 15:47 | 50.04881 | 8.59047 | 349 ft | 0 kts | 338° |